Burwell, NE (68823)

7:20 PM CDT on August 26, 2016 (GMT -0500)
Sharp | | Change Station

Elev 2070 ft 41.62 °N, 98.95 °W | Updated 27 minutes ago

Overcast
Overcast
70 °F
Feels Like 70 °F
N
5
Wind Variable Wind from East

Today
High -- | Low -- °F
--% Chance of Precip.
Yesterday
High -- | Low -- °F
Precip. -- in
Pressure 30.03 in
Visibility 10.0 miles
Clouds Mostly Cloudy 4800 ft
Mostly Cloudy 6000 ft
Overcast 8500 ft
Dew Point 54 °F
Humidity 57%
Rainfall 0.00 in
Snow Depth Not available.
6:56 AM 8:18 PM
Waning Crescent, 30% visible
METAR KODX 262353Z AUTO 10004KT 10SM BKN048 BKN060 OVC085 21/12 A3004 RMK AO2 SLP169 T02110122 10233 20211 56011
Pressure 30.03 in
Visibility 10.0 miles
Clouds Mostly Cloudy 4800 ft
Mostly Cloudy 6000 ft
Overcast 8500 ft
Dew Point 54 °F
Humidity 57%
Rainfall 0.00 in
Snow Depth Not available.
6:56 AM 8:18 PM
Waning Crescent, 30% visible
METAR KODX 262353Z AUTO 10004KT 10SM BKN048 BKN060 OVC085 21/12 A3004 RMK AO2 SLP169 T02110122 10233 20211 56011

10-Day Weather Forecast

Almanac

Astronomy

Aug. 26, 2016 Rise Set
Actual Time
Civil Twilight
Nautical Twilight
Astronomical Twilight
Moon
Length of Visible Light
Length of Day
Tomorrow will be .
, % of the Moon is Illuminated

Today's Extremes

State Highs State Lows

Community

WunderPhotos

Upload Photos

1,935,257 photos uploaded!

WunderBlog® & News

Nearby

Air Quality

  Air Quality AQ Index Pollutant
Not available.

Snow Depth

Station Depth Elevation

Earthquake Activity

City Distance Mag. Time & Date
Minimum magnitude displayed is 2.5.

Coastal Water Temperatures

Place Temperature

Stations

Nearby Weather Stations

Station Location Temp. Windchill Dew Point Humidity Wind Precip. Elev Updated Type
                   

Watches & Warnings

There are currently no watches in effect.